createdAt,value
2023-10-29T00:00:38.059Z,100144.75
2023-10-29T00:03:08.058Z,100143.22
2023-10-29T00:05:35.902Z,100144.75
2023-10-29T00:08:03.749Z,100149.41
2023-10-29T00:10:31.514Z,100112.03
2023-10-29T00:12:59.088Z,100151.28
2023-10-29T00:15:26.632Z,100143.53
2023-10-29T00:17:54.490Z,100153.72
2023-10-29T00:20:22.187Z,100115.31
2023-10-29T00:22:49.685Z,100162.00
2023-10-29T00:25:17.673Z,100155.34
2023-10-29T00:27:45.467Z,100159.37
2023-10-29T00:30:14.022Z,100158.41
2023-10-29T00:32:41.932Z,100156.34
2023-10-29T00:35:10.338Z,100162.28
2023-10-29T00:37:38.103Z,100153.00
2023-10-29T00:40:06.816Z,100145.56
2023-10-29T00:42:35.073Z,100141.53
2023-10-29T00:45:02.724Z,100099.81
2023-10-29T00:47:30.809Z,100143.50
2023-10-29T00:49:58.676Z,100137.44
2023-10-29T00:52:26.552Z,100144.19
2023-10-29T00:54:55.014Z,100150.84
2023-10-29T00:57:22.732Z,100151.22
2023-10-29T00:59:50.669Z,100136.00
2023-10-29T01:02:18.698Z,100132.44
2023-10-29T01:04:46.630Z,100127.91
2023-10-29T01:07:14.432Z,100120.03
2023-10-29T01:09:43.369Z,100116.50
2023-10-29T01:12:18.027Z,100113.19
2023-10-29T01:14:46.105Z,100112.78
2023-10-29T01:17:13.878Z,100111.94
2023-10-29T01:19:41.586Z,100117.66
2023-10-29T01:22:09.664Z,100119.72
2023-10-29T01:24:37.795Z,100121.75
2023-10-29T01:27:05.346Z,100121.19
2023-10-29T01:29:33.146Z,100125.06
2023-10-29T01:32:00.658Z,100132.37
2023-10-29T01:34:28.873Z,100134.16
2023-10-29T01:36:56.659Z,100130.03
2023-10-29T01:39:24.288Z,100136.81
2023-10-29T01:41:57.091Z,100145.53
2023-10-29T01:44:25.233Z,100103.00
2023-10-29T01:46:52.794Z,100148.16
2023-10-29T01:49:20.383Z,100148.16
2023-10-29T01:51:48.163Z,100145.97
2023-10-29T01:54:15.759Z,100145.44
2023-10-29T01:56:43.750Z,100151.41
2023-10-29T01:59:15.705Z,100161.03
2023-10-29T02:01:44.252Z,100159.37
2023-10-29T02:04:12.567Z,100153.56
2023-10-29T02:06:41.122Z,100159.75
2023-10-29T02:09:10.057Z,100164.34
2023-10-29T02:11:39.276Z,100156.44
2023-10-29T02:14:07.679Z,100160.88
2023-10-29T02:16:35.582Z,100160.72
2023-10-29T02:19:04.584Z,100163.06
2023-10-29T02:21:32.281Z,100169.69
2023-10-29T02:24:02.524Z,100165.25
2023-10-29T02:26:30.203Z,100163.47
2023-10-29T02:28:57.999Z,100169.81
2023-10-29T02:31:25.924Z,100163.19
2023-10-29T02:33:53.461Z,100166.91
2023-10-29T02:36:21.042Z,100167.44
2023-10-29T02:38:48.923Z,100167.72
2023-10-29T02:41:16.452Z,100169.41
2023-10-29T02:43:43.981Z,100164.56
2023-10-29T02:46:12.163Z,100178.53
2023-10-29T02:48:39.836Z,100179.09
2023-10-29T02:51:12.295Z,100188.50
2023-10-29T02:53:40.723Z,100151.66
2023-10-29T02:56:08.821Z,100203.59
2023-10-29T02:58:36.752Z,100202.63
2023-10-29T03:01:09.050Z,100206.22
2023-10-29T03:03:38.672Z,100199.31
2023-10-29T03:06:08.189Z,100193.66
2023-10-29T03:08:36.791Z,100199.59
2023-10-29T03:11:04.740Z,100207.47
2023-10-29T03:13:32.946Z,100203.22
2023-10-29T03:16:00.732Z,100211.38
2023-10-29T03:18:30.559Z,100213.19
2023-10-29T03:20:58.756Z,100215.81
2023-10-29T03:23:26.385Z,100176.28
2023-10-29T03:26:01.419Z,100203.97
2023-10-29T03:28:29.417Z,100228.28
2023-10-29T03:30:57.520Z,100227.16
2023-10-29T03:33:25.206Z,100233.66
2023-10-29T03:35:53.225Z,100229.53
2023-10-29T03:38:22.016Z,100233.66
2023-10-29T03:40:49.545Z,100225.22
2023-10-29T03:43:17.410Z,100188.34
2023-10-29T03:45:44.971Z,100233.56
2023-10-29T03:48:15.540Z,100191.72
2023-10-29T03:50:43.620Z,100230.37
2023-10-29T03:53:11.258Z,100230.00
2023-10-29T03:55:39.544Z,100237.72
2023-10-29T03:58:07.391Z,100235.25
2023-10-29T04:00:34.881Z,100230.81
2023-10-29T04:03:02.867Z,100192.00
2023-10-29T04:05:30.710Z,100196.97
2023-10-29T04:07:58.303Z,100238.72
2023-10-29T04:10:26.124Z,100234.81
2023-10-29T04:12:53.638Z,100234.13
2023-10-29T04:15:21.213Z,100233.28
2023-10-29T04:17:49.723Z,100235.81
2023-10-29T04:20:17.946Z,100228.06
2023-10-29T04:22:45.779Z,100195.19
2023-10-29T04:25:13.577Z,100200.72
2023-10-29T04:27:41.089Z,100232.75
2023-10-29T04:30:09.047Z,100236.06
2023-10-29T04:32:36.929Z,100247.56
2023-10-29T04:35:04.854Z,100251.72
2023-10-29T04:37:32.369Z,100257.94
2023-10-29T04:40:00.211Z,100236.22
2023-10-29T04:42:27.773Z,100197.41
2023-10-29T04:44:55.328Z,100238.13
2023-10-29T04:47:23.232Z,100234.72
2023-10-29T04:49:50.978Z,100233.87
2023-10-29T04:52:18.642Z,100228.62
2023-10-29T04:54:46.747Z,100232.50
2023-10-29T04:57:14.518Z,100236.78
2023-10-29T04:59:42.017Z,100231.81
2023-10-29T05:02:09.937Z,100244.13
2023-10-29T05:04:37.451Z,100234.44
2023-10-29T05:07:05.047Z,100233.19
2023-10-29T05:09:32.846Z,100241.22
2023-10-29T05:12:00.475Z,100249.94
2023-10-29T05:14:28.104Z,100204.84
2023-10-29T05:16:57.283Z,100244.00
2023-10-29T05:19:25.078Z,100246.63
2023-10-29T05:21:52.673Z,100247.84
2023-10-29T05:24:21.957Z,100255.59
2023-10-29T05:26:49.603Z,100253.41
2023-10-29T05:29:17.582Z,100249.66
2023-10-29T05:31:45.542Z,100248.25
2023-10-29T05:34:13.138Z,100255.75
2023-10-29T05:36:40.683Z,100251.44
2023-10-29T05:39:08.637Z,100257.81
2023-10-29T05:41:36.338Z,100252.84
2023-10-29T05:44:03.837Z,100262.09
2023-10-29T05:46:31.677Z,100262.62
2023-10-29T05:49:00.023Z,100269.88
2023-10-29T05:51:27.524Z,100233.59
2023-10-29T05:53:55.466Z,100270.53
2023-10-29T05:56:23.146Z,100268.31
2023-10-29T05:58:50.682Z,100276.19
2023-10-29T06:01:18.560Z,100276.03
2023-10-29T06:03:46.857Z,100240.91
2023-10-29T06:06:14.613Z,100284.69
2023-10-29T06:08:42.222Z,100290.78
2023-10-29T06:11:10.114Z,100285.34
2023-10-29T06:13:37.693Z,100284.78
2023-10-29T06:16:09.682Z,100280.31
2023-10-29T06:18:37.597Z,100291.91
2023-10-29T06:21:05.340Z,100291.16
2023-10-29T06:23:33.134Z,100293.50
2023-10-29T06:26:01.007Z,100304.00
2023-10-29T06:28:28.567Z,100267.47
2023-10-29T06:30:56.040Z,100315.25
2023-10-29T06:33:23.945Z,100320.38
2023-10-29T06:35:51.823Z,100318.53
2023-10-29T06:38:19.730Z,100320.12
2023-10-29T06:40:47.562Z,100327.81
2023-10-29T06:43:15.067Z,100325.41
2023-10-29T06:45:42.616Z,100329.53
2023-10-29T06:48:10.562Z,100328.91
2023-10-29T06:50:38.313Z,100339.38
2023-10-29T06:53:07.109Z,100341.94
2023-10-29T06:55:37.370Z,100346.31
2023-10-29T06:58:05.298Z,100341.59
2023-10-29T07:00:32.971Z,100345.81
2023-10-29T07:03:01.314Z,100337.66
2023-10-29T07:05:29.098Z,100338.97
2023-10-29T07:07:56.786Z,100337.91
2023-10-29T07:10:24.629Z,100333.50
2023-10-29T07:12:54.269Z,100339.66
2023-10-29T07:15:21.810Z,100347.31
2023-10-29T07:17:49.692Z,100345.06
2023-10-29T07:20:17.166Z,100337.56
2023-10-29T07:22:44.739Z,100352.31
2023-10-29T07:25:12.808Z,100310.63
2023-10-29T07:27:40.350Z,100344.28
2023-10-29T07:30:08.745Z,100344.12
2023-10-29T07:32:36.993Z,100348.28
2023-10-29T07:35:04.859Z,100354.72
2023-10-29T07:37:32.348Z,100326.97
2023-10-29T07:40:00.217Z,100321.87
2023-10-29T07:42:27.850Z,100345.87
2023-10-29T07:44:55.292Z,100350.19
2023-10-29T07:47:23.253Z,100348.50
2023-10-29T07:49:50.745Z,100314.63
2023-10-29T07:52:18.290Z,100358.31
2023-10-29T07:54:46.562Z,100356.63
2023-10-29T07:57:14.262Z,100347.84
2023-10-29T07:59:41.800Z,100353.97
2023-10-29T08:02:09.746Z,100355.22
2023-10-29T08:04:37.660Z,100357.56
2023-10-29T08:07:05.545Z,100360.62
2023-10-29T08:09:33.069Z,100354.31
2023-10-29T08:12:00.994Z,100358.06
2023-10-29T08:14:29.426Z,100359.03
2023-10-29T08:16:57.005Z,100358.34
2023-10-29T08:19:25.336Z,100362.41
2023-10-29T08:21:52.845Z,100355.72
2023-10-29T08:24:20.317Z,100359.91
2023-10-29T08:26:48.186Z,100360.16
2023-10-29T08:29:15.762Z,100333.19
2023-10-29T08:31:43.409Z,100360.97
2023-10-29T08:34:11.226Z,100367.31
2023-10-29T08:36:39.209Z,100327.19
2023-10-29T08:39:06.836Z,100362.56
2023-10-29T08:41:35.934Z,100364.78
2023-10-29T08:44:03.528Z,100331.87
2023-10-29T08:46:31.268Z,100366.06
2023-10-29T08:48:59.286Z,100361.94
2023-10-29T08:51:26.775Z,100360.84
2023-10-29T08:53:54.359Z,100369.16
2023-10-29T08:56:22.229Z,100365.56
2023-10-29T08:58:49.871Z,100367.03
2023-10-29T09:01:18.690Z,100369.78
2023-10-29T09:03:46.784Z,100372.13
2023-10-29T09:06:14.518Z,100374.94
2023-10-29T09:08:42.578Z,100377.47
2023-10-29T09:11:16.530Z,100381.00
2023-10-29T09:13:44.600Z,100383.63
2023-10-29T09:16:12.629Z,100379.81
2023-10-29T09:18:41.444Z,100372.66
2023-10-29T09:21:09.062Z,100383.63
2023-10-29T09:23:37.023Z,100384.06
2023-10-29T09:26:04.561Z,100350.19
2023-10-29T09:28:32.156Z,100379.94
2023-10-29T09:31:00.035Z,100386.56
2023-10-29T09:33:30.129Z,100347.75
2023-10-29T09:35:57.825Z,100378.06
2023-10-29T09:38:25.669Z,100379.75
2023-10-29T09:40:56.523Z,100388.03
2023-10-29T09:43:28.381Z,100373.72
2023-10-29T09:45:56.728Z,100372.13
2023-10-29T09:48:25.140Z,100376.47
2023-10-29T09:50:53.647Z,100370.28
2023-10-29T09:53:22.192Z,100366.84
2023-10-29T09:55:52.351Z,100350.59
2023-10-29T09:58:23.509Z,100361.78
2023-10-29T10:00:51.653Z,100368.00
2023-10-29T10:03:19.881Z,100363.09
2023-10-29T10:05:48.050Z,100356.34
2023-10-29T10:08:15.565Z,100362.09
2023-10-29T10:10:45.113Z,100371.78
2023-10-29T10:13:13.472Z,100354.72
2023-10-29T10:15:42.325Z,100365.44
2023-10-29T10:18:10.799Z,100368.50
2023-10-29T10:20:39.251Z,100360.06
2023-10-29T10:23:10.407Z,100352.22
2023-10-29T10:25:39.040Z,100324.84
2023-10-29T10:28:07.783Z,100359.00
2023-10-29T10:30:38.915Z,100354.09
2023-10-29T10:33:12.505Z,100355.16
2023-10-29T10:35:41.892Z,100353.31
2023-10-29T10:38:10.927Z,100310.75
2023-10-29T10:40:39.203Z,100309.13
2023-10-29T10:43:09.873Z,100343.28
2023-10-29T10:45:38.377Z,100336.28
2023-10-29T10:48:06.920Z,100340.78
2023-10-29T10:50:35.953Z,100340.78
2023-10-29T10:53:04.390Z,100338.75
2023-10-29T10:58:06.123Z,100348.63
2023-10-29T11:00:33.861Z,100345.13
2023-10-29T11:03:09.021Z,100340.62
2023-10-29T11:05:41.404Z,100340.41
2023-10-29T11:08:09.078Z,100338.34
2023-10-29T11:10:36.726Z,100335.44
2023-10-29T11:13:21.540Z,100322.72
2023-10-29T11:15:50.567Z,100335.87
2023-10-29T11:18:33.703Z,100327.66
2023-10-29T11:21:04.652Z,100328.47
2023-10-29T11:23:33.819Z,100321.84
2023-10-29T11:26:25.357Z,100318.97
2023-10-29T11:28:54.810Z,100321.84
2023-10-29T11:31:24.628Z,100313.03
2023-10-29T11:33:58.019Z,100315.69
2023-10-29T11:36:36.112Z,100304.59
2023-10-29T11:39:23.917Z,100285.09
2023-10-29T11:41:53.578Z,100303.78
2023-10-29T11:44:24.956Z,100302.53
2023-10-29T11:47:03.550Z,100298.19
2023-10-29T11:49:52.240Z,100295.94
2023-10-29T11:52:20.586Z,100291.56
2023-10-29T11:54:48.305Z,100298.53
2023-10-29T11:57:16.604Z,100284.97
2023-10-29T11:59:55.357Z,100295.00
2023-10-29T12:02:23.310Z,100260.09
2023-10-29T12:04:51.461Z,100268.28
2023-10-29T12:07:26.814Z,100286.12
2023-10-29T12:10:01.733Z,100289.41
2023-10-29T12:12:29.281Z,100294.16
2023-10-29T12:14:57.278Z,100297.44
2023-10-29T12:17:25.597Z,100295.84
2023-10-29T12:19:53.275Z,100290.88
2023-10-29T12:22:25.973Z,100280.53
2023-10-29T12:24:56.759Z,100276.41
2023-10-29T12:27:25.498Z,100274.75
2023-10-29T12:29:53.341Z,100270.63
2023-10-29T12:32:25.261Z,100282.53
2023-10-29T12:35:02.444Z,100276.81
2023-10-29T12:37:31.687Z,100270.84
2023-10-29T12:40:01.511Z,100244.78
2023-10-29T12:42:54.427Z,100264.47
2023-10-29T12:45:26.852Z,100263.03
2023-10-29T12:48:16.638Z,100260.13
2023-10-29T12:50:56.242Z,100252.94
2023-10-29T12:53:27.658Z,100260.38
2023-10-29T12:55:57.596Z,100253.19
2023-10-29T12:58:25.950Z,100258.34
2023-10-29T13:00:56.996Z,100262.31
2023-10-29T13:03:26.144Z,100249.34
2023-10-29T13:05:55.898Z,100241.72
2023-10-29T13:08:27.515Z,100245.62
2023-10-29T13:10:55.467Z,100219.78
2023-10-29T13:13:24.971Z,100249.12
2023-10-29T13:15:53.044Z,100254.69
2023-10-29T13:18:21.382Z,100257.78
2023-10-29T13:20:49.331Z,100246.25
2023-10-29T13:23:16.916Z,100249.81
2023-10-29T13:25:44.708Z,100257.19
2023-10-29T13:28:12.267Z,100261.75
2023-10-29T13:30:39.722Z,100258.25
2023-10-29T13:33:09.384Z,100252.25
2023-10-29T13:35:39.719Z,100246.53
2023-10-29T13:38:09.601Z,100246.97
2023-10-29T13:40:39.305Z,100250.06
2023-10-29T13:43:07.527Z,100241.41
2023-10-29T13:45:35.217Z,100243.06
2023-10-29T13:48:05.278Z,100241.22
2023-10-29T13:50:37.577Z,100243.87
2023-10-29T13:53:05.597Z,100210.03
2023-10-29T13:55:33.881Z,100244.72
2023-10-29T13:58:02.477Z,100244.13
2023-10-29T14:00:30.155Z,100243.06
2023-10-29T14:02:58.497Z,100251.97
2023-10-29T14:05:26.318Z,100245.78
2023-10-29T14:07:55.580Z,100245.19
2023-10-29T14:10:23.708Z,100243.75
2023-10-29T14:12:51.466Z,100260.63
2023-10-29T14:15:19.297Z,100228.34
2023-10-29T14:17:47.604Z,100255.50
2023-10-29T14:20:15.766Z,100257.16
2023-10-29T14:22:43.355Z,100249.94
2023-10-29T14:25:11.835Z,100243.78
2023-10-29T14:27:39.281Z,100252.81
2023-10-29T14:30:08.049Z,100245.81
2023-10-29T14:32:36.047Z,100242.50
2023-10-29T14:35:04.049Z,100243.75
2023-10-29T14:37:31.570Z,100205.91
2023-10-29T14:39:59.634Z,100204.44
2023-10-29T14:42:30.055Z,100224.97
2023-10-29T14:44:58.908Z,100222.72
2023-10-29T14:47:26.793Z,100223.94
2023-10-29T14:49:54.389Z,100228.00
2023-10-29T14:52:21.936Z,100225.94
2023-10-29T14:54:49.920Z,100193.00
2023-10-29T14:57:28.951Z,100218.69
2023-10-29T14:59:58.333Z,100187.28
2023-10-29T15:02:26.161Z,100221.75
2023-10-29T15:04:57.078Z,100223.81
2023-10-29T15:07:25.628Z,100222.97
2023-10-29T15:09:53.387Z,100243.44
2023-10-29T15:12:20.938Z,100201.31
2023-10-29T15:14:49.212Z,100243.16
2023-10-29T15:17:23.174Z,100247.84
2023-10-29T15:20:00.074Z,100241.19
2023-10-29T15:22:27.662Z,100241.13
2023-10-29T15:24:55.552Z,100243.13
2023-10-29T15:27:25.546Z,100241.84
2023-10-29T15:29:53.176Z,100250.81
2023-10-29T15:32:21.064Z,100257.72
2023-10-29T15:34:48.759Z,100265.03
2023-10-29T15:37:16.413Z,100262.31
2023-10-29T15:39:46.247Z,100257.13
2023-10-29T15:42:13.863Z,100266.84
2023-10-29T15:44:41.397Z,100268.00
2023-10-29T15:47:09.386Z,100264.09
2023-10-29T15:49:36.910Z,100257.47
2023-10-29T15:52:05.673Z,100265.19
2023-10-29T15:54:33.806Z,100269.41
2023-10-29T15:57:01.394Z,100266.31
2023-10-29T15:59:29.646Z,100261.72
2023-10-29T16:01:59.001Z,100270.50
2023-10-29T16:04:27.611Z,100265.91
2023-10-29T16:06:55.693Z,100275.47
2023-10-29T16:09:23.966Z,100273.34
2023-10-29T16:11:52.546Z,100288.41
2023-10-29T16:14:21.422Z,100280.81
2023-10-29T16:16:48.958Z,100244.91
2023-10-29T16:19:16.767Z,100275.13
2023-10-29T16:21:44.787Z,100279.62
2023-10-29T16:24:12.625Z,100240.69
2023-10-29T16:26:40.486Z,100282.38
2023-10-29T16:29:08.085Z,100282.56
2023-10-29T16:31:35.598Z,100279.47
2023-10-29T16:34:03.561Z,100282.13
2023-10-29T16:36:31.402Z,100278.38
2023-10-29T16:38:59.011Z,100277.53
2023-10-29T16:41:26.867Z,100288.06
2023-10-29T16:43:54.561Z,100287.59
2023-10-29T16:46:22.480Z,100289.81
2023-10-29T16:48:50.543Z,100289.50
2023-10-29T16:51:18.445Z,100301.03
2023-10-29T16:53:46.282Z,100302.84
2023-10-29T16:56:14.465Z,100310.53
2023-10-29T16:58:43.737Z,100310.75
2023-10-29T17:01:13.588Z,100314.28
2023-10-29T17:03:41.851Z,100306.66
2023-10-29T17:06:09.952Z,100301.72
2023-10-29T17:08:37.857Z,100308.41
2023-10-29T17:11:05.885Z,100304.44
2023-10-29T17:13:33.702Z,100309.28
2023-10-29T17:16:05.356Z,100307.81
2023-10-29T17:18:33.934Z,100318.97
2023-10-29T17:21:02.736Z,100327.66
2023-10-29T17:23:30.729Z,100327.03
2023-10-29T17:25:58.522Z,100319.69
2023-10-29T17:28:26.032Z,100342.81
2023-10-29T17:30:53.630Z,100343.50
2023-10-29T17:33:23.091Z,100340.38
2023-10-29T17:35:51.049Z,100339.75
2023-10-29T17:38:18.914Z,100314.19
2023-10-29T17:40:47.100Z,100348.09
2023-10-29T17:43:15.178Z,100301.50
2023-10-29T17:45:45.089Z,100336.91
2023-10-29T17:48:14.201Z,100335.41
2023-10-29T17:50:44.911Z,100336.78
2023-10-29T17:53:13.006Z,100338.94
2023-10-29T17:55:40.562Z,100340.44
2023-10-29T17:58:08.175Z,100339.31
2023-10-29T18:00:36.037Z,100304.97
2023-10-29T18:03:04.145Z,100349.31
2023-10-29T18:05:32.062Z,100351.28
2023-10-29T18:07:59.860Z,100354.47
2023-10-29T18:10:27.991Z,100346.19
2023-10-29T18:12:55.865Z,100354.16
2023-10-29T18:15:23.425Z,100327.72
2023-10-29T18:17:51.322Z,100351.34
2023-10-29T18:20:19.219Z,100316.19
2023-10-29T18:22:46.789Z,100352.34
2023-10-29T18:25:14.818Z,100350.03
2023-10-29T18:27:43.071Z,100351.69
2023-10-29T18:30:11.691Z,100346.25
2023-10-29T18:32:39.894Z,100349.56
2023-10-29T18:35:08.588Z,100341.13
2023-10-29T18:37:36.470Z,100334.84
2023-10-29T18:40:07.821Z,100339.00
2023-10-29T18:42:35.384Z,100335.53
2023-10-29T18:45:04.152Z,100342.97
2023-10-29T18:47:31.979Z,100344.97
2023-10-29T18:50:02.903Z,100353.28
2023-10-29T18:52:30.862Z,100346.31
2023-10-29T18:54:58.777Z,100313.25
2023-10-29T18:57:26.751Z,100310.78
2023-10-29T18:59:54.609Z,100322.69
2023-10-29T19:02:22.529Z,100367.34
2023-10-29T19:04:50.521Z,100357.25
2023-10-29T19:07:18.390Z,100362.06
2023-10-29T19:09:46.335Z,100364.38
2023-10-29T19:12:14.357Z,100370.84
2023-10-29T19:14:43.403Z,100370.69
2023-10-29T19:17:11.717Z,100374.66
2023-10-29T19:19:40.370Z,100341.44
2023-10-29T19:22:12.687Z,100371.84
2023-10-29T19:24:40.728Z,100373.03
2023-10-29T19:27:09.902Z,100369.72
2023-10-29T19:29:37.789Z,100369.88
2023-10-29T19:32:05.920Z,100369.56
2023-10-29T19:34:33.436Z,100368.41
2023-10-29T19:37:00.973Z,100370.22
2023-10-29T19:39:29.031Z,100361.09
2023-10-29T19:41:56.680Z,100362.13
2023-10-29T19:44:24.800Z,100366.41
2023-10-29T19:46:53.133Z,100364.44
2023-10-29T19:49:21.034Z,100357.16
2023-10-29T19:51:49.025Z,100359.28
2023-10-29T19:54:17.268Z,100357.97
2023-10-29T19:56:45.051Z,100357.78
2023-10-29T19:59:13.020Z,100325.41
2023-10-29T20:01:40.998Z,100359.78
2023-10-29T20:04:08.925Z,100362.09
2023-10-29T20:06:37.141Z,100319.06
2023-10-29T20:09:05.040Z,100358.44
2023-10-29T20:11:33.282Z,100362.09
2023-10-29T20:14:03.091Z,100358.78
2023-10-29T20:16:31.263Z,100351.69
2023-10-29T20:19:00.408Z,100370.72
2023-10-29T20:21:32.414Z,100362.44
2023-10-29T20:24:00.971Z,100365.25
2023-10-29T20:26:29.145Z,100356.78
2023-10-29T20:28:57.581Z,100350.19
2023-10-29T20:31:25.949Z,100340.25
2023-10-29T20:33:53.845Z,100338.44
2023-10-29T20:36:21.857Z,100338.91
2023-10-29T20:38:50.019Z,100301.22
2023-10-29T20:41:17.574Z,100335.09
2023-10-29T20:43:45.418Z,100335.63
2023-10-29T20:46:14.386Z,100326.84
2023-10-29T20:48:42.139Z,100326.53
2023-10-29T20:51:09.765Z,100329.03
2023-10-29T20:53:37.691Z,100339.25
2023-10-29T20:56:06.430Z,100316.62
2023-10-29T20:58:35.523Z,100315.44
2023-10-29T21:01:06.361Z,100315.78
2023-10-29T21:03:34.149Z,100306.19
2023-10-29T21:06:02.330Z,100316.62
2023-10-29T21:08:30.350Z,100318.25
2023-10-29T21:11:14.617Z,100319.06
2023-10-29T21:13:43.217Z,100326.38
2023-10-29T21:16:10.844Z,100326.50
2023-10-29T21:18:38.598Z,100323.38
2023-10-29T21:21:07.651Z,100327.66
2023-10-29T21:23:35.457Z,100329.34
2023-10-29T21:26:03.183Z,100334.28
2023-10-29T21:28:31.392Z,100334.28
2023-10-29T21:30:58.988Z,100344.25
2023-10-29T21:33:26.607Z,100349.53
2023-10-29T21:35:55.475Z,100356.78
2023-10-29T21:38:22.966Z,100357.94
2023-10-29T21:40:50.635Z,100360.91
2023-10-29T21:43:18.512Z,100362.25
2023-10-29T21:45:46.072Z,100364.41
2023-10-29T21:48:13.779Z,100355.13
2023-10-29T21:50:42.321Z,100369.03
2023-10-29T21:53:10.551Z,100362.59
2023-10-29T21:55:38.599Z,100375.31
2023-10-29T21:58:10.068Z,100365.19
2023-10-29T22:00:38.117Z,100376.09
2023-10-29T22:03:06.453Z,100371.31
2023-10-29T22:05:34.299Z,100368.16
2023-10-29T22:08:02.049Z,100372.97
2023-10-29T22:10:29.913Z,100369.81
2023-10-29T22:12:57.505Z,100371.78
2023-10-29T22:15:29.329Z,100368.31
2023-10-29T22:17:57.475Z,100369.28
2023-10-29T22:20:25.476Z,100362.00
2023-10-29T22:22:53.340Z,100364.62
2023-10-29T22:25:21.156Z,100357.84
2023-10-29T22:27:48.716Z,100360.78
2023-10-29T22:30:16.355Z,100360.59
2023-10-29T22:32:44.243Z,100360.13
2023-10-29T22:35:11.844Z,100367.22
2023-10-29T22:37:39.389Z,100361.56
2023-10-29T22:40:07.724Z,100370.81
2023-10-29T22:42:35.318Z,100374.78
2023-10-29T22:45:02.956Z,100373.59
2023-10-29T22:47:31.058Z,100374.59
2023-10-29T22:49:58.665Z,100370.62
2023-10-29T22:52:26.143Z,100374.28
2023-10-29T22:54:54.091Z,100381.38
2023-10-29T22:57:21.616Z,100379.34
2023-10-29T22:59:51.903Z,100372.09
2023-10-29T23:02:20.043Z,100371.25
2023-10-29T23:04:47.555Z,100381.03
2023-10-29T23:07:15.123Z,100374.91
2023-10-29T23:09:42.995Z,100333.19
2023-10-29T23:12:10.753Z,100377.38
2023-10-29T23:14:38.609Z,100338.78
2023-10-29T23:17:06.556Z,100337.09
2023-10-29T23:19:35.464Z,100372.75
2023-10-29T23:22:03.266Z,100329.34
2023-10-29T23:24:31.081Z,100374.88
2023-10-29T23:26:58.698Z,100331.00
2023-10-29T23:29:26.151Z,100373.72
2023-10-29T23:31:54.028Z,100373.72
2023-10-29T23:34:22.797Z,100328.00
2023-10-29T23:36:50.416Z,100372.72
2023-10-29T23:39:18.269Z,100374.03
2023-10-29T23:41:45.844Z,100372.06
2023-10-29T23:44:13.452Z,100368.75
2023-10-29T23:46:41.399Z,100352.44
2023-10-29T23:49:09.504Z,100381.72
2023-10-29T23:51:37.195Z,100381.91
2023-10-29T23:54:05.521Z,100372.09
2023-10-29T23:56:33.446Z,100390.78
2023-10-29T23:59:00.983Z,100374.03
